Plainville, New York
Current Conditions -  °F | °C
As of 8:54 AM on Saturday 25 Oct 2014 (Local Time) from KFZY Reporting Station
Overcast Overcast  
Wind Chill: 50°   Ceiling: 6000
Heat Index: 50°   Visibility: 7mi
Dew Point: 44°   Wind: 7mph
Humidity: 80%   Direction: 190°S
Pressure: 29.82"   Gusts: NA
Location:  43.16°N, 76.45°W
Report Text: KFZY 251254Z AUTO 19006KT 7SM FEW041 OVC060 10/07 A2982 RMK AO2 SLP098 T01000067
Loading
Personal Weather Stations






























Interactive Weather Map
Tropical Storm Tracking
New forecast layout! Learn more

10-Day Weather Forecast

Advertisements
Track Severe Weather on mobile